<?xml version="1.0" encoding="UTF-8" standalone="no" ?>
<gpx xmlns="http://www.topografix.com/GPX/1/1" xmlns:xsi="http://www.w3.org/2001/XMLSchema-instance" xsi:schemaLocation="http://www.topografix.com/GPX/1/1 http://www.topografix.com/GPX/1/1/gpx.xsd" version="1.1" creator="VisuGPX - https://www.visugpx.com">
  <metadata>
    <name>07 - Saint-Félicien circuits en partant de l'Etape cavalière du Balayn </name>
    <desc><![CDATA[Ces itinéraires font partie de la collection de EquiLiberté : www.equiliberte.org Ils sont proposés par 07410 L'Étape Cavalière du Balayn à St Félicien. http://etapecavalieredubalayn.fr/index.php/contact-reservation/ Circuits NON ACCESSIBLE aux attelages ]]></desc>
  </metadata>
  <trk>
    <name><![CDATA[07 - St Félicien : Boucle de St Victor : de Corsas à Montplot]]></name>
    <trkseg>
      <trkpt lat="45.09397" lon="4.65207">
        <ele>619</ele>
        <time>2020-07-15T18:53:42 02:00</time>
      </trkpt>
      <trkpt lat="45.09335" lon="4.65235">
        <ele>618</ele>
        <time>2020-07-15T18:53:47 02:00</time>
      </trkpt>
      <trkpt lat="45.09297" lon="4.65227">
        <ele>616</ele>
        <time>2020-07-15T18:53:52 02:00</time>
      </trkpt>
      <trkpt lat="45.09217" lon="4.65203">
        <ele>615</ele>
        <time>2020-07-15T18:53:57 02:00</time>
      </trkpt>
      <trkpt lat="45.09173" lon="4.65276">
        <ele>604</ele>
        <time>2020-07-15T18:54:02 02:00</time>
      </trkpt>
      <trkpt lat="45.09171" lon="4.65375">
        <ele>592</ele>
        <time>2020-07-15T18:54:07 02:00</time>
      </trkpt>
      <trkpt lat="45.0918" lon="4.65484">
        <ele>581</ele>
        <time>2020-07-15T18:54:12 02:00</time>
      </trkpt>
      <trkpt lat="45.09167" lon="4.65551">
        <ele>575</ele>
        <time>2020-07-15T18:54:17 02:00</time>
      </trkpt>
      <trkpt lat="45.09124" lon="4.65604">
        <ele>569</ele>
        <time>2020-07-15T18:54:22 02:00</time>
      </trkpt>
      <trkpt lat="45.09095" lon="4.65744">
        <ele>563</ele>
        <time>2020-07-15T18:54:27 02:00</time>
      </trkpt>
      <trkpt lat="45.09121" lon="4.6604">
        <ele>548</ele>
        <time>2020-07-15T18:54:32 02:00</time>
      </trkpt>
      <trkpt lat="45.09124" lon="4.66074">
        <ele>546</ele>
        <time>2020-07-15T18:54:37 02:00</time>
      </trkpt>
      <trkpt lat="45.09083" lon="4.66111">
        <ele>546</ele>
        <time>2020-07-15T18:54:42 02:00</time>
      </trkpt>
      <trkpt lat="45.09118" lon="4.66287">
        <ele>533</ele>
        <time>2020-07-15T18:54:47 02:00</time>
      </trkpt>
      <trkpt lat="45.09139" lon="4.66355">
        <ele>528</ele>
        <time>2020-07-15T18:54:52 02:00</time>
      </trkpt>
      <trkpt lat="45.09147" lon="4.66471">
        <ele>521</ele>
        <time>2020-07-15T18:54:57 02:00</time>
      </trkpt>
      <trkpt lat="45.09233" lon="4.66426">
        <ele>517</ele>
        <time>2020-07-15T18:55:02 02:00</time>
      </trkpt>
      <trkpt lat="45.09286" lon="4.66415">
        <ele>516</ele>
        <time>2020-07-15T18:55:07 02:00</time>
      </trkpt>
      <trkpt lat="45.09335" lon="4.6645">
        <ele>516</ele>
        <time>2020-07-15T18:55:12 02:00</time>
      </trkpt>
      <trkpt lat="45.09324" lon="4.66516">
        <ele>516</ele>
        <time>2020-07-15T18:55:17 02:00</time>
      </trkpt>
      <trkpt lat="45.09326" lon="4.6657">
        <ele>516</ele>
        <time>2020-07-15T18:55:22 02:00</time>
      </trkpt>
      <trkpt lat="45.09348" lon="4.66632">
        <ele>518</ele>
        <time>2020-07-15T18:55:27 02:00</time>
      </trkpt>
      <trkpt lat="45.09379" lon="4.6663">
        <ele>522</ele>
        <time>2020-07-15T18:55:32 02:00</time>
      </trkpt>
      <trkpt lat="45.09485" lon="4.66739">
        <ele>529</ele>
        <time>2020-07-15T18:55:37 02:00</time>
      </trkpt>
      <trkpt lat="45.095" lon="4.66765">
        <ele>529</ele>
        <time>2020-07-15T18:55:42 02:00</time>
      </trkpt>
      <trkpt lat="45.09548" lon="4.66778">
        <ele>530</ele>
        <time>2020-07-15T18:55:47 02:00</time>
      </trkpt>
      <trkpt lat="45.09606" lon="4.66744">
        <ele>537</ele>
        <time>2020-07-15T18:55:52 02:00</time>
      </trkpt>
      <trkpt lat="45.09657" lon="4.6678">
        <ele>539</ele>
        <time>2020-07-15T18:55:57 02:00</time>
      </trkpt>
      <trkpt lat="45.09685" lon="4.6678">
        <ele>540</ele>
        <time>2020-07-15T18:56:02 02:00</time>
      </trkpt>
      <trkpt lat="45.0971" lon="4.66774">
        <ele>542</ele>
        <time>2020-07-15T18:56:07 02:00</time>
      </trkpt>
      <trkpt lat="45.09744" lon="4.66787">
        <ele>544</ele>
        <time>2020-07-15T18:56:12 02:00</time>
      </trkpt>
      <trkpt lat="45.09769" lon="4.66898">
        <ele>549</ele>
        <time>2020-07-15T18:56:17 02:00</time>
      </trkpt>
      <trkpt lat="45.09775" lon="4.66967">
        <ele>552</ele>
        <time>2020-07-15T18:56:22 02:00</time>
      </trkpt>
      <trkpt lat="45.09786" lon="4.66988">
        <ele>553</ele>
        <time>2020-07-15T18:56:27 02:00</time>
      </trkpt>
      <trkpt lat="45.09765" lon="4.67055">
        <ele>554</ele>
        <time>2020-07-15T18:56:32 02:00</time>
      </trkpt>
      <trkpt lat="45.09859" lon="4.67188">
        <ele>567</ele>
        <time>2020-07-15T18:56:37 02:00</time>
      </trkpt>
      <trkpt lat="45.09883" lon="4.67175">
        <ele>570</ele>
        <time>2020-07-15T18:56:42 02:00</time>
      </trkpt>
      <trkpt lat="45.09907" lon="4.67278">
        <ele>571</ele>
        <time>2020-07-15T18:56:47 02:00</time>
      </trkpt>
      <trkpt lat="45.09909" lon="4.67329">
        <ele>572</ele>
        <time>2020-07-15T18:56:52 02:00</time>
      </trkpt>
      <trkpt lat="45.09875" lon="4.67439">
        <ele>575</ele>
        <time>2020-07-15T18:56:57 02:00</time>
      </trkpt>
      <trkpt lat="45.09945" lon="4.67626">
        <ele>589</ele>
        <time>2020-07-15T18:57:02 02:00</time>
      </trkpt>
      <trkpt lat="45.10012" lon="4.67724">
        <ele>595</ele>
        <time>2020-07-15T18:57:07 02:00</time>
      </trkpt>
      <trkpt lat="45.10042" lon="4.67761">
        <ele>596</ele>
        <time>2020-07-15T18:57:12 02:00</time>
      </trkpt>
      <trkpt lat="45.1003" lon="4.67939">
        <ele>596</ele>
        <time>2020-07-15T18:57:17 02:00</time>
      </trkpt>
      <trkpt lat="45.10033" lon="4.68037">
        <ele>596</ele>
        <time>2020-07-15T18:57:22 02:00</time>
      </trkpt>
      <trkpt lat="45.09875" lon="4.68125">
        <ele>614</ele>
        <time>2020-07-15T18:57:27 02:00</time>
      </trkpt>
      <trkpt lat="45.09807" lon="4.68098">
        <ele>620</ele>
        <time>2020-07-15T18:57:32 02:00</time>
      </trkpt>
      <trkpt lat="45.09786" lon="4.6811">
        <ele>624</ele>
        <time>2020-07-15T18:57:37 02:00</time>
      </trkpt>
      <trkpt lat="45.09788" lon="4.68162">
        <ele>630</ele>
        <time>2020-07-15T18:57:42 02:00</time>
      </trkpt>
      <trkpt lat="45.09816" lon="4.68226">
        <ele>633</ele>
        <time>2020-07-15T18:57:47 02:00</time>
      </trkpt>
      <trkpt lat="45.09798" lon="4.68295">
        <ele>644</ele>
        <time>2020-07-15T18:57:52 02:00</time>
      </trkpt>
      <trkpt lat="45.09777" lon="4.68364">
        <ele>653</ele>
        <time>2020-07-15T18:57:57 02:00</time>
      </trkpt>
      <trkpt lat="45.09732" lon="4.68456">
        <ele>660</ele>
        <time>2020-07-15T18:58:02 02:00</time>
      </trkpt>
      <trkpt lat="45.09679" lon="4.6851">
        <ele>663</ele>
        <time>2020-07-15T18:58:07 02:00</time>
      </trkpt>
      <trkpt lat="45.09566" lon="4.68587">
        <ele>662</ele>
        <time>2020-07-15T18:58:12 02:00</time>
      </trkpt>
      <trkpt lat="45.09503" lon="4.68636">
        <ele>659</ele>
        <time>2020-07-15T18:58:17 02:00</time>
      </trkpt>
      <trkpt lat="45.09389" lon="4.68628">
        <ele>659</ele>
        <time>2020-07-15T18:58:22 02:00</time>
      </trkpt>
      <trkpt lat="45.09348" lon="4.68598">
        <ele>657</ele>
        <time>2020-07-15T18:58:27 02:00</time>
      </trkpt>
      <trkpt lat="45.09327" lon="4.68574">
        <ele>655</ele>
        <time>2020-07-15T18:58:32 02:00</time>
      </trkpt>
      <trkpt lat="45.09279" lon="4.6864">
        <ele>649</ele>
        <time>2020-07-15T18:58:37 02:00</time>
      </trkpt>
      <trkpt lat="45.09267" lon="4.68736">
        <ele>649</ele>
        <time>2020-07-15T18:58:42 02:00</time>
      </trkpt>
      <trkpt lat="45.09289" lon="4.68817">
        <ele>640</ele>
        <time>2020-07-15T18:58:47 02:00</time>
      </trkpt>
      <trkpt lat="45.09361" lon="4.68817">
        <ele>634</ele>
        <time>2020-07-15T18:58:52 02:00</time>
      </trkpt>
      <trkpt lat="45.09478" lon="4.6882">
        <ele>609</ele>
        <time>2020-07-15T18:58:57 02:00</time>
      </trkpt>
      <trkpt lat="45.09561" lon="4.6883">
        <ele>594</ele>
        <time>2020-07-15T18:59:02 02:00</time>
      </trkpt>
      <trkpt lat="45.0958" lon="4.68854">
        <ele>587</ele>
        <time>2020-07-15T18:59:07 02:00</time>
      </trkpt>
      <trkpt lat="45.09592" lon="4.68888">
        <ele>580</ele>
        <time>2020-07-15T18:59:12 02:00</time>
      </trkpt>
      <trkpt lat="45.096" lon="4.68928">
        <ele>574</ele>
        <time>2020-07-15T18:59:17 02:00</time>
      </trkpt>
      <trkpt lat="45.09645" lon="4.68943">
        <ele>572</ele>
        <time>2020-07-15T18:59:22 02:00</time>
      </trkpt>
      <trkpt lat="45.09654" lon="4.68979">
        <ele>568</ele>
        <time>2020-07-15T18:59:27 02:00</time>
      </trkpt>
      <trkpt lat="45.09677" lon="4.68995">
        <ele>567</ele>
        <time>2020-07-15T18:59:32 02:00</time>
      </trkpt>
      <trkpt lat="45.09616" lon="4.69065">
        <ele>563</ele>
        <time>2020-07-15T18:59:37 02:00</time>
      </trkpt>
      <trkpt lat="45.09603" lon="4.69183">
        <ele>557</ele>
        <time>2020-07-15T18:59:42 02:00</time>
      </trkpt>
      <trkpt lat="45.09583" lon="4.69254">
        <ele>557</ele>
        <time>2020-07-15T18:59:47 02:00</time>
      </trkpt>
      <trkpt lat="45.09535" lon="4.6931">
        <ele>555</ele>
        <time>2020-07-15T18:59:52 02:00</time>
      </trkpt>
      <trkpt lat="45.09497" lon="4.69344">
        <ele>552</ele>
        <time>2020-07-15T18:59:57 02:00</time>
      </trkpt>
      <trkpt lat="45.09453" lon="4.69452">
        <ele>547</ele>
        <time>2020-07-15T19:00:02 02:00</time>
      </trkpt>
      <trkpt lat="45.09442" lon="4.69488">
        <ele>545</ele>
        <time>2020-07-15T19:00:07 02:00</time>
      </trkpt>
      <trkpt lat="45.09433" lon="4.69567">
        <ele>541</ele>
        <time>2020-07-15T19:00:12 02:00</time>
      </trkpt>
      <trkpt lat="45.09513" lon="4.69608">
        <ele>536</ele>
        <time>2020-07-15T19:00:17 02:00</time>
      </trkpt>
      <trkpt lat="45.09595" lon="4.69623">
        <ele>529</ele>
        <time>2020-07-15T19:00:22 02:00</time>
      </trkpt>
      <trkpt lat="45.09703" lon="4.69696">
        <ele>520</ele>
        <time>2020-07-15T19:00:27 02:00</time>
      </trkpt>
      <trkpt lat="45.09713" lon="4.69703">
        <ele>520</ele>
        <time>2020-07-15T19:00:32 02:00</time>
      </trkpt>
      <trkpt lat="45.09727" lon="4.69726">
        <ele>519</ele>
        <time>2020-07-15T19:00:37 02:00</time>
      </trkpt>
      <trkpt lat="45.09791" lon="4.6975">
        <ele>516</ele>
        <time>2020-07-15T19:00:42 02:00</time>
      </trkpt>
      <trkpt lat="45.098" lon="4.69786">
        <ele>512</ele>
        <time>2020-07-15T19:00:47 02:00</time>
      </trkpt>
      <trkpt lat="45.09789" lon="4.69887">
        <ele>506</ele>
        <time>2020-07-15T19:00:52 02:00</time>
      </trkpt>
      <trkpt lat="45.09794" lon="4.69992">
        <ele>498</ele>
        <time>2020-07-15T19:00:57 02:00</time>
      </trkpt>
      <trkpt lat="45.09832" lon="4.70308">
        <ele>479</ele>
        <time>2020-07-15T19:01:02 02:00</time>
      </trkpt>
      <trkpt lat="45.09842" lon="4.70389">
        <ele>474</ele>
        <time>2020-07-15T19:01:07 02:00</time>
      </trkpt>
      <trkpt lat="45.09868" lon="4.70535">
        <ele>468</ele>
        <time>2020-07-15T19:01:12 02:00</time>
      </trkpt>
      <trkpt lat="45.09916" lon="4.70657">
        <ele>465</ele>
        <time>2020-07-15T19:01:17 02:00</time>
      </trkpt>
      <trkpt lat="45.099" lon="4.70812">
        <ele>462</ele>
        <time>2020-07-15T19:01:22 02:00</time>
      </trkpt>
      <trkpt lat="45.09888" lon="4.70891">
        <ele>458</ele>
        <time>2020-07-15T19:01:27 02:00</time>
      </trkpt>
      <trkpt lat="45.09889" lon="4.70928">
        <ele>456</ele>
        <time>2020-07-15T19:01:32 02:00</time>
      </trkpt>
      <trkpt lat="45.09916" lon="4.70915">
        <ele>452</ele>
        <time>2020-07-15T19:01:37 02:00</time>
      </trkpt>
      <trkpt lat="45.09922" lon="4.70878">
        <ele>455</ele>
        <time>2020-07-15T19:01:42 02:00</time>
      </trkpt>
      <trkpt lat="45.09975" lon="4.70868">
        <ele>462</ele>
        <time>2020-07-15T19:01:47 02:00</time>
      </trkpt>
      <trkpt lat="45.10119" lon="4.70883">
        <ele>466</ele>
        <time>2020-07-15T19:01:52 02:00</time>
      </trkpt>
      <trkpt lat="45.10118" lon="4.70825">
        <ele>468</ele>
        <time>2020-07-15T19:01:57 02:00</time>
      </trkpt>
      <trkpt lat="45.10131" lon="4.70752">
        <ele>468</ele>
        <time>2020-07-15T19:02:02 02:00</time>
      </trkpt>
      <trkpt lat="45.1015" lon="4.70737">
        <ele>467</ele>
        <time>2020-07-15T19:02:07 02:00</time>
      </trkpt>
      <trkpt lat="45.10184" lon="4.70685">
        <ele>468</ele>
        <time>2020-07-15T19:02:12 02:00</time>
      </trkpt>
      <trkpt lat="45.10215" lon="4.70642">
        <ele>467</ele>
        <time>2020-07-15T19:02:17 02:00</time>
      </trkpt>
      <trkpt lat="45.10245" lon="4.7061">
        <ele>465</ele>
        <time>2020-07-15T19:02:22 02:00</time>
      </trkpt>
      <trkpt lat="45.10271" lon="4.70578">
        <ele>465</ele>
        <time>2020-07-15T19:02:27 02:00</time>
      </trkpt>
      <trkpt lat="45.10306" lon="4.7057">
        <ele>465</ele>
        <time>2020-07-15T19:02:32 02:00</time>
      </trkpt>
      <trkpt lat="45.10313" lon="4.70529">
        <ele>468</ele>
        <time>2020-07-15T19:02:37 02:00</time>
      </trkpt>
      <trkpt lat="45.10351" lon="4.7052">
        <ele>467</ele>
        <time>2020-07-15T19:02:42 02:00</time>
      </trkpt>
      <trkpt lat="45.10369" lon="4.70531">
        <ele>466</ele>
        <time>2020-07-15T19:02:47 02:00</time>
      </trkpt>
      <trkpt lat="45.10406" lon="4.70484">
        <ele>467</ele>
        <time>2020-07-15T19:02:52 02:00</time>
      </trkpt>
      <trkpt lat="45.10395" lon="4.70439">
        <ele>470</ele>
        <time>2020-07-15T19:02:57 02:00</time>
      </trkpt>
      <trkpt lat="45.10395" lon="4.70417">
        <ele>471</ele>
        <time>2020-07-15T19:03:02 02:00</time>
      </trkpt>
      <trkpt lat="45.104" lon="4.70381">
        <ele>473</ele>
        <time>2020-07-15T19:03:07 02:00</time>
      </trkpt>
      <trkpt lat="45.10406" lon="4.70357">
        <ele>474</ele>
        <time>2020-07-15T19:03:12 02:00</time>
      </trkpt>
      <trkpt lat="45.10378" lon="4.7034">
        <ele>475</ele>
        <time>2020-07-15T19:03:17 02:00</time>
      </trkpt>
      <trkpt lat="45.10378" lon="4.70293">
        <ele>477</ele>
        <time>2020-07-15T19:03:22 02:00</time>
      </trkpt>
      <trkpt lat="45.10372" lon="4.70258">
        <ele>478</ele>
        <time>2020-07-15T19:03:27 02:00</time>
      </trkpt>
      <trkpt lat="45.10372" lon="4.70222">
        <ele>479</ele>
        <time>2020-07-15T19:03:32 02:00</time>
      </trkpt>
      <trkpt lat="45.10403" lon="4.70198">
        <ele>478</ele>
        <time>2020-07-15T19:03:37 02:00</time>
      </trkpt>
      <trkpt lat="45.10431" lon="4.70203">
        <ele>479</ele>
        <time>2020-07-15T19:03:42 02:00</time>
      </trkpt>
      <trkpt lat="45.10445" lon="4.70245">
        <ele>478</ele>
        <time>2020-07-15T19:03:47 02:00</time>
      </trkpt>
      <trkpt lat="45.10448" lon="4.70284">
        <ele>477</ele>
        <time>2020-07-15T19:03:52 02:00</time>
      </trkpt>
      <trkpt lat="45.10519" lon="4.70325">
        <ele>477</ele>
        <time>2020-07-15T19:03:57 02:00</time>
      </trkpt>
      <trkpt lat="45.10509" lon="4.70299">
        <ele>479</ele>
        <time>2020-07-15T19:04:02 02:00</time>
      </trkpt>
      <trkpt lat="45.10524" lon="4.70237">
        <ele>484</ele>
        <time>2020-07-15T19:04:07 02:00</time>
      </trkpt>
      <trkpt lat="45.10533" lon="4.70192">
        <ele>488</ele>
        <time>2020-07-15T19:04:12 02:00</time>
      </trkpt>
      <trkpt lat="45.10574" lon="4.70181">
        <ele>491</ele>
        <time>2020-07-15T19:04:17 02:00</time>
      </trkpt>
      <trkpt lat="45.1056" lon="4.70044">
        <ele>495</ele>
        <time>2020-07-15T19:04:22 02:00</time>
      </trkpt>
      <trkpt lat="45.10531" lon="4.70003">
        <ele>493</ele>
        <time>2020-07-15T19:04:27 02:00</time>
      </trkpt>
      <trkpt lat="45.10513" lon="4.6996">
        <ele>491</ele>
        <time>2020-07-15T19:04:32 02:00</time>
      </trkpt>
      <trkpt lat="45.10498" lon="4.69917">
        <ele>488</ele>
        <time>2020-07-15T19:04:37 02:00</time>
      </trkpt>
      <trkpt lat="45.10496" lon="4.69902">
        <ele>487</ele>
        <time>2020-07-15T19:04:42 02:00</time>
      </trkpt>
      <trkpt lat="45.10524" lon="4.69855">
        <ele>488</ele>
        <time>2020-07-15T19:04:47 02:00</time>
      </trkpt>
      <trkpt lat="45.10546" lon="4.69782">
        <ele>490</ele>
        <time>2020-07-15T19:04:52 02:00</time>
      </trkpt>
      <trkpt lat="45.10554" lon="4.6972">
        <ele>493</ele>
        <time>2020-07-15T19:04:57 02:00</time>
      </trkpt>
      <trkpt lat="45.10555" lon="4.6966">
        <ele>496</ele>
        <time>2020-07-15T19:05:02 02:00</time>
      </trkpt>
      <trkpt lat="45.10555" lon="4.69615">
        <ele>496</ele>
        <time>2020-07-15T19:05:07 02:00</time>
      </trkpt>
      <trkpt lat="45.10551" lon="4.6961">
        <ele>496</ele>
        <time>2020-07-15T19:05:12 02:00</time>
      </trkpt>
      <trkpt lat="45.10537" lon="4.69542">
        <ele>495</ele>
        <time>2020-07-15T19:05:17 02:00</time>
      </trkpt>
      <trkpt lat="45.10518" lon="4.69473">
        <ele>494</ele>
        <time>2020-07-15T19:05:22 02:00</time>
      </trkpt>
      <trkpt lat="45.10513" lon="4.6946">
        <ele>494</ele>
        <time>2020-07-15T19:05:27 02:00</time>
      </trkpt>
      <trkpt lat="45.1053" lon="4.69434">
        <ele>495</ele>
        <time>2020-07-15T19:05:32 02:00</time>
      </trkpt>
      <trkpt lat="45.1053" lon="4.69359">
        <ele>497</ele>
        <time>2020-07-15T19:05:37 02:00</time>
      </trkpt>
      <trkpt lat="45.10539" lon="4.69295">
        <ele>499</ele>
        <time>2020-07-15T19:05:42 02:00</time>
      </trkpt>
      <trkpt lat="45.10577" lon="4.69303">
        <ele>499</ele>
        <time>2020-07-15T19:05:47 02:00</time>
      </trkpt>
      <trkpt lat="45.10599" lon="4.69243">
        <ele>501</ele>
        <time>2020-07-15T19:05:52 02:00</time>
      </trkpt>
      <trkpt lat="45.10628" lon="4.69226">
        <ele>504</ele>
        <time>2020-07-15T19:05:57 02:00</time>
      </trkpt>
      <trkpt lat="45.10631" lon="4.69166">
        <ele>504</ele>
        <time>2020-07-15T19:06:02 02:00</time>
      </trkpt>
      <trkpt lat="45.10645" lon="4.69136">
        <ele>505</ele>
        <time>2020-07-15T19:06:07 02:00</time>
      </trkpt>
      <trkpt lat="45.10651" lon="4.69098">
        <ele>505</ele>
        <time>2020-07-15T19:06:12 02:00</time>
      </trkpt>
      <trkpt lat="45.10601" lon="4.69031">
        <ele>505</ele>
        <time>2020-07-15T19:06:17 02:00</time>
      </trkpt>
      <trkpt lat="45.10578" lon="4.69005">
        <ele>506</ele>
        <time>2020-07-15T19:06:22 02:00</time>
      </trkpt>
      <trkpt lat="45.10574" lon="4.68999">
        <ele>507</ele>
        <time>2020-07-15T19:06:27 02:00</time>
      </trkpt>
      <trkpt lat="45.10566" lon="4.68941">
        <ele>509</ele>
        <time>2020-07-15T19:06:32 02:00</time>
      </trkpt>
      <trkpt lat="45.10536" lon="4.6893">
        <ele>511</ele>
        <time>2020-07-15T19:06:37 02:00</time>
      </trkpt>
      <trkpt lat="45.10481" lon="4.68915">
        <ele>515</ele>
        <time>2020-07-15T19:06:42 02:00</time>
      </trkpt>
      <trkpt lat="45.10431" lon="4.68913">
        <ele>518</ele>
        <time>2020-07-15T19:06:47 02:00</time>
      </trkpt>
      <trkpt lat="45.10387" lon="4.68857">
        <ele>524</ele>
        <time>2020-07-15T19:06:52 02:00</time>
      </trkpt>
      <trkpt lat="45.10428" lon="4.68752">
        <ele>531</ele>
        <time>2020-07-15T19:06:57 02:00</time>
      </trkpt>
      <trkpt lat="45.10395" lon="4.68735">
        <ele>534</ele>
        <time>2020-07-15T19:07:02 02:00</time>
      </trkpt>
      <trkpt lat="45.10395" lon="4.68658">
        <ele>538</ele>
        <time>2020-07-15T19:07:07 02:00</time>
      </trkpt>
      <trkpt lat="45.10472" lon="4.68529">
        <ele>522</ele>
        <time>2020-07-15T19:07:12 02:00</time>
      </trkpt>
      <trkpt lat="45.10533" lon="4.68428">
        <ele>521</ele>
        <time>2020-07-15T19:07:17 02:00</time>
      </trkpt>
      <trkpt lat="45.10478" lon="4.68331">
        <ele>529</ele>
        <time>2020-07-15T19:07:22 02:00</time>
      </trkpt>
      <trkpt lat="45.10433" lon="4.68226">
        <ele>535</ele>
        <time>2020-07-15T19:07:27 02:00</time>
      </trkpt>
      <trkpt lat="45.10389" lon="4.68125">
        <ele>542</ele>
        <time>2020-07-15T19:07:32 02:00</time>
      </trkpt>
      <trkpt lat="45.10369" lon="4.68076">
        <ele>548</ele>
        <time>2020-07-15T19:07:37 02:00</time>
      </trkpt>
      <trkpt lat="45.10359" lon="4.68022">
        <ele>551</ele>
        <time>2020-07-15T19:07:42 02:00</time>
      </trkpt>
      <trkpt lat="45.10334" lon="4.67932">
        <ele>557</ele>
        <time>2020-07-15T19:07:47 02:00</time>
      </trkpt>
      <trkpt lat="45.10286" lon="4.67836">
        <ele>568</ele>
        <time>2020-07-15T19:07:52 02:00</time>
      </trkpt>
      <trkpt lat="45.10275" lon="4.67797">
        <ele>569</ele>
        <time>2020-07-15T19:07:57 02:00</time>
      </trkpt>
      <trkpt lat="45.10237" lon="4.67752">
        <ele>573</ele>
        <time>2020-07-15T19:08:02 02:00</time>
      </trkpt>
      <trkpt lat="45.10184" lon="4.67645">
        <ele>584</ele>
        <time>2020-07-15T19:08:07 02:00</time>
      </trkpt>
      <trkpt lat="45.1018" lon="4.67598">
        <ele>586</ele>
        <time>2020-07-15T19:08:12 02:00</time>
      </trkpt>
      <trkpt lat="45.10189" lon="4.6752">
        <ele>592</ele>
        <time>2020-07-15T19:08:17 02:00</time>
      </trkpt>
      <trkpt lat="45.10197" lon="4.67458">
        <ele>599</ele>
        <time>2020-07-15T19:08:22 02:00</time>
      </trkpt>
      <trkpt lat="45.10219" lon="4.67402">
        <ele>605</ele>
        <time>2020-07-15T19:08:27 02:00</time>
      </trkpt>
      <trkpt lat="45.10284" lon="4.67387">
        <ele>606</ele>
        <time>2020-07-15T19:08:32 02:00</time>
      </trkpt>
      <trkpt lat="45.10325" lon="4.67365">
        <ele>612</ele>
        <time>2020-07-15T19:08:37 02:00</time>
      </trkpt>
      <trkpt lat="45.10357" lon="4.6734">
        <ele>620</ele>
        <time>2020-07-15T19:08:42 02:00</time>
      </trkpt>
      <trkpt lat="45.10311" lon="4.67313">
        <ele>625</ele>
        <time>2020-07-15T19:08:47 02:00</time>
      </trkpt>
      <trkpt lat="45.10278" lon="4.67288">
        <ele>628</ele>
        <time>2020-07-15T19:08:52 02:00</time>
      </trkpt>
      <trkpt lat="45.10267" lon="4.67251">
        <ele>634</ele>
        <time>2020-07-15T19:08:57 02:00</time>
      </trkpt>
      <trkpt lat="45.10278" lon="4.67204">
        <ele>640</ele>
        <time>2020-07-15T19:09:02 02:00</time>
      </trkpt>
      <trkpt lat="45.10309" lon="4.6723">
        <ele>643</ele>
        <time>2020-07-15T19:09:07 02:00</time>
      </trkpt>
      <trkpt lat="45.10334" lon="4.67217">
        <ele>649</ele>
        <time>2020-07-15T19:09:12 02:00</time>
      </trkpt>
      <trkpt lat="45.10353" lon="4.67212">
        <ele>653</ele>
        <time>2020-07-15T19:09:17 02:00</time>
      </trkpt>
      <trkpt lat="45.10352" lon="4.6718">
        <ele>658</ele>
        <time>2020-07-15T19:09:22 02:00</time>
      </trkpt>
      <trkpt lat="45.10375" lon="4.67174">
        <ele>663</ele>
        <time>2020-07-15T19:09:27 02:00</time>
      </trkpt>
      <trkpt lat="45.10394" lon="4.67131">
        <ele>671</ele>
        <time>2020-07-15T19:09:32 02:00</time>
      </trkpt>
      <trkpt lat="45.10414" lon="4.67129">
        <ele>676</ele>
        <time>2020-07-15T19:09:37 02:00</time>
      </trkpt>
      <trkpt lat="45.10434" lon="4.67099">
        <ele>681</ele>
        <time>2020-07-15T19:09:42 02:00</time>
      </trkpt>
      <trkpt lat="45.10452" lon="4.67041">
        <ele>690</ele>
        <time>2020-07-15T19:09:47 02:00</time>
      </trkpt>
      <trkpt lat="45.10579" lon="4.67058">
        <ele>690</ele>
        <time>2020-07-15T19:09:52 02:00</time>
      </trkpt>
      <trkpt lat="45.1063" lon="4.67011">
        <ele>685</ele>
        <time>2020-07-15T19:09:57 02:00</time>
      </trkpt>
      <trkpt lat="45.1067" lon="4.6694">
        <ele>683</ele>
        <time>2020-07-15T19:10:02 02:00</time>
      </trkpt>
      <trkpt lat="45.10762" lon="4.66891">
        <ele>667</ele>
        <time>2020-07-15T19:10:07 02:00</time>
      </trkpt>
      <trkpt lat="45.10832" lon="4.66865">
        <ele>659</ele>
        <time>2020-07-15T19:10:12 02:00</time>
      </trkpt>
      <trkpt lat="45.1077" lon="4.67015">
        <ele>644</ele>
        <time>2020-07-15T19:10:17 02:00</time>
      </trkpt>
      <trkpt lat="45.10771" lon="4.67116">
        <ele>632</ele>
        <time>2020-07-15T19:10:22 02:00</time>
      </trkpt>
      <trkpt lat="45.10755" lon="4.67204">
        <ele>622</ele>
        <time>2020-07-15T19:10:27 02:00</time>
      </trkpt>
      <trkpt lat="45.10826" lon="4.67133">
        <ele>622</ele>
        <time>2020-07-15T19:10:32 02:00</time>
      </trkpt>
      <trkpt lat="45.10859" lon="4.67159">
        <ele>619</ele>
        <time>2020-07-15T19:10:37 02:00</time>
      </trkpt>
      <trkpt lat="45.10898" lon="4.67156">
        <ele>620</ele>
        <time>2020-07-15T19:10:42 02:00</time>
      </trkpt>
      <trkpt lat="45.10945" lon="4.67126">
        <ele>623</ele>
        <time>2020-07-15T19:10:47 02:00</time>
      </trkpt>
      <trkpt lat="45.10992" lon="4.67059">
        <ele>626</ele>
        <time>2020-07-15T19:10:52 02:00</time>
      </trkpt>
      <trkpt lat="45.1106" lon="4.67023">
        <ele>622</ele>
        <time>2020-07-15T19:10:57 02:00</time>
      </trkpt>
      <trkpt lat="45.1114" lon="4.66995">
        <ele>611</ele>
        <time>2020-07-15T19:11:02 02:00</time>
      </trkpt>
      <trkpt lat="45.11219" lon="4.6699">
        <ele>607</ele>
        <time>2020-07-15T19:11:07 02:00</time>
      </trkpt>
      <trkpt lat="45.11257" lon="4.67053">
        <ele>602</ele>
        <time>2020-07-15T19:11:12 02:00</time>
      </trkpt>
      <trkpt lat="45.1125" lon="4.67136">
        <ele>595</ele>
        <time>2020-07-15T19:11:17 02:00</time>
      </trkpt>
      <trkpt lat="45.11181" lon="4.67204">
        <ele>591</ele>
        <time>2020-07-15T19:11:22 02:00</time>
      </trkpt>
      <trkpt lat="45.11152" lon="4.6726">
        <ele>590</ele>
        <time>2020-07-15T19:11:27 02:00</time>
      </trkpt>
      <trkpt lat="45.11121" lon="4.67387">
        <ele>587</ele>
        <time>2020-07-15T19:11:32 02:00</time>
      </trkpt>
      <trkpt lat="45.11069" lon="4.6744">
        <ele>576</ele>
        <time>2020-07-15T19:11:37 02:00</time>
      </trkpt>
      <trkpt lat="45.11025" lon="4.6751">
        <ele>569</ele>
        <time>2020-07-15T19:11:42 02:00</time>
      </trkpt>
      <trkpt lat="45.11092" lon="4.67514">
        <ele>579</ele>
        <time>2020-07-15T19:11:47 02:00</time>
      </trkpt>
      <trkpt lat="45.11084" lon="4.67615">
        <ele>577</ele>
        <time>2020-07-15T19:11:52 02:00</time>
      </trkpt>
      <trkpt lat="45.11092" lon="4.67653">
        <ele>580</ele>
        <time>2020-07-15T19:11:57 02:00</time>
      </trkpt>
      <trkpt lat="45.1109" lon="4.67724">
        <ele>580</ele>
        <time>2020-07-15T19:12:02 02:00</time>
      </trkpt>
      <trkpt lat="45.11118" lon="4.67774">
        <ele>588</ele>
        <time>2020-07-15T19:12:07 02:00</time>
      </trkpt>
      <trkpt lat="45.11156" lon="4.67825">
        <ele>598</ele>
        <time>2020-07-15T19:12:12 02:00</time>
      </trkpt>
      <trkpt lat="45.11179" lon="4.67857">
        <ele>605</ele>
        <time>2020-07-15T19:12:17 02:00</time>
      </trkpt>
      <trkpt lat="45.11215" lon="4.67969">
        <ele>616</ele>
        <time>2020-07-15T19:12:22 02:00</time>
      </trkpt>
      <trkpt lat="45.11233" lon="4.67962">
        <ele>623</ele>
        <time>2020-07-15T19:12:27 02:00</time>
      </trkpt>
      <trkpt lat="45.1123" lon="4.67902">
        <ele>624</ele>
        <time>2020-07-15T19:12:32 02:00</time>
      </trkpt>
      <trkpt lat="45.11229" lon="4.6784">
        <ele>626</ele>
        <time>2020-07-15T19:12:37 02:00</time>
      </trkpt>
      <trkpt lat="45.11212" lon="4.6775">
        <ele>623</ele>
        <time>2020-07-15T19:12:42 02:00</time>
      </trkpt>
      <trkpt lat="45.11212" lon="4.67709">
        <ele>624</ele>
        <time>2020-07-15T19:12:47 02:00</time>
      </trkpt>
      <trkpt lat="45.11221" lon="4.67591">
        <ele>629</ele>
        <time>2020-07-15T19:12:52 02:00</time>
      </trkpt>
      <trkpt lat="45.11245" lon="4.67546">
        <ele>634</ele>
        <time>2020-07-15T19:12:57 02:00</time>
      </trkpt>
      <trkpt lat="45.11328" lon="4.67527">
        <ele>641</ele>
        <time>2020-07-15T19:13:02 02:00</time>
      </trkpt>
      <trkpt lat="45.11404" lon="4.67559">
        <ele>652</ele>
        <time>2020-07-15T19:13:07 02:00</time>
      </trkpt>
      <trkpt lat="45.11431" lon="4.67548">
        <ele>655</ele>
        <time>2020-07-15T19:13:12 02:00</time>
      </trkpt>
      <trkpt lat="45.11442" lon="4.67501">
        <ele>653</ele>
        <time>2020-07-15T19:13:17 02:00</time>
      </trkpt>
      <trkpt lat="45.11438" lon="4.67456">
        <ele>650</ele>
        <time>2020-07-15T19:13:22 02:00</time>
      </trkpt>
      <trkpt lat="45.11462" lon="4.67366">
        <ele>653</ele>
        <time>2020-07-15T19:13:27 02:00</time>
      </trkpt>
      <trkpt lat="45.11509" lon="4.67398">
        <ele>668</ele>
        <time>2020-07-15T19:13:32 02:00</time>
      </trkpt>
      <trkpt lat="45.11571" lon="4.67362">
        <ele>683</ele>
        <time>2020-07-15T19:13:37 02:00</time>
      </trkpt>
      <trkpt lat="45.11616" lon="4.67297">
        <ele>688</ele>
        <time>2020-07-15T19:13:42 02:00</time>
      </trkpt>
      <trkpt lat="45.11681" lon="4.67237">
        <ele>698</ele>
        <time>2020-07-15T19:13:47 02:00</time>
      </trkpt>
      <trkpt lat="45.11728" lon="4.6722">
        <ele>709</ele>
        <time>2020-07-15T19:13:52 02:00</time>
      </trkpt>
      <trkpt lat="45.11712" lon="4.67261">
        <ele>711</ele>
        <time>2020-07-15T19:13:57 02:00</time>
      </trkpt>
      <trkpt lat="45.1168" lon="4.67295">
        <ele>709</ele>
        <time>2020-07-15T19:14:02 02:00</time>
      </trkpt>
      <trkpt lat="45.11637" lon="4.67387">
        <ele>712</ele>
        <time>2020-07-15T19:14:07 02:00</time>
      </trkpt>
      <trkpt lat="45.11639" lon="4.67512">
        <ele>732</ele>
        <time>2020-07-15T19:14:12 02:00</time>
      </trkpt>
      <trkpt lat="45.11676" lon="4.6747">
        <ele>742</ele>
        <time>2020-07-15T19:14:17 02:00</time>
      </trkpt>
      <trkpt lat="45.11711" lon="4.67425">
        <ele>750</ele>
        <time>2020-07-15T19:14:22 02:00</time>
      </trkpt>
      <trkpt lat="45.11755" lon="4.6738">
        <ele>755</ele>
        <time>2020-07-15T19:14:27 02:00</time>
      </trkpt>
      <trkpt lat="45.11781" lon="4.67345">
        <ele>751</ele>
        <time>2020-07-15T19:14:32 02:00</time>
      </trkpt>
      <trkpt lat="45.11829" lon="4.67354">
        <ele>763</ele>
        <time>2020-07-15T19:14:37 02:00</time>
      </trkpt>
      <trkpt lat="45.11878" lon="4.67358">
        <ele>765</ele>
        <time>2020-07-15T19:14:42 02:00</time>
      </trkpt>
      <trkpt lat="45.11911" lon="4.67341">
        <ele>764</ele>
        <time>2020-07-15T19:14:47 02:00</time>
      </trkpt>
      <trkpt lat="45.11973" lon="4.67354">
        <ele>761</ele>
        <time>2020-07-15T19:14:52 02:00</time>
      </trkpt>
      <trkpt lat="45.11977" lon="4.67345">
        <ele>760</ele>
        <time>2020-07-15T19:14:57 02:00</time>
      </trkpt>
      <trkpt lat="45.1198" lon="4.6735">
        <ele>760</ele>
        <time>2020-07-15T19:15:02 02:00</time>
      </trkpt>
      <trkpt lat="45.11977" lon="4.6735">
        <ele>760</ele>
        <time>2020-07-15T19:15:07 02:00</time>
      </trkpt>
      <trkpt lat="45.11974" lon="4.67343">
        <ele>760</ele>
        <time>2020-07-15T19:15:12 02:00</time>
      </trkpt>
      <trkpt lat="45.11971" lon="4.67339">
        <ele>760</ele>
        <time>2020-07-15T19:15:17 02:00</time>
      </trkpt>
      <trkpt lat="45.11976" lon="4.67348">
        <ele>760</ele>
        <time>2020-07-15T19:15:22 02:00</time>
      </trkpt>
      <trkpt lat="45.11979" lon="4.67347">
        <ele>760</ele>
        <time>2020-07-15T19:15:27 02:00</time>
      </trkpt>
      <trkpt lat="45.11976" lon="4.67345">
        <ele>760</ele>
        <time>2020-07-15T19:15:32 02:00</time>
      </trkpt>
      <trkpt lat="45.1198" lon="4.6735">
        <ele>760</ele>
        <time>2020-07-15T19:15:37 02:00</time>
      </trkpt>
      <trkpt lat="45.11976" lon="4.67351">
        <ele>761</ele>
        <time>2020-07-15T19:15:42 02:00</time>
      </trkpt>
      <trkpt lat="45.11979" lon="4.67352">
        <ele>760</ele>
        <time>2020-07-15T19:15:47 02:00</time>
      </trkpt>
      <trkpt lat="45.11976" lon="4.6735">
        <ele>761</ele>
        <time>2020-07-15T19:15:52 02:00</time>
      </trkpt>
      <trkpt lat="45.11971" lon="4.67352">
        <ele>761</ele>
        <time>2020-07-15T19:15:57 02:00</time>
      </trkpt>
      <trkpt lat="45.1198" lon="4.67345">
        <ele>760</ele>
        <time>2020-07-15T19:16:02 02:00</time>
      </trkpt>
      <trkpt lat="45.11981" lon="4.67341">
        <ele>760</ele>
        <time>2020-07-15T19:16:07 02:00</time>
      </trkpt>
      <trkpt lat="45.11982" lon="4.67339">
        <ele>759</ele>
        <time>2020-07-15T19:16:12 02:00</time>
      </trkpt>
      <trkpt lat="45.11981" lon="4.67332">
        <ele>759</ele>
        <time>2020-07-15T19:16:17 02:00</time>
      </trkpt>
      <trkpt lat="45.11979" lon="4.67328">
        <ele>759</ele>
        <time>2020-07-15T19:16:22 02:00</time>
      </trkpt>
      <trkpt lat="45.11985" lon="4.67328">
        <ele>759</ele>
        <time>2020-07-15T19:16:27 02:00</time>
      </trkpt>
      <trkpt lat="45.11983" lon="4.67329">
        <ele>759</ele>
        <time>2020-07-15T19:16:32 02:00</time>
      </trkpt>
      <trkpt lat="45.11985" lon="4.67327">
        <ele>759</ele>
        <time>2020-07-15T19:16:37 02:00</time>
      </trkpt>
      <trkpt lat="45.1198" lon="4.67332">
        <ele>759</ele>
        <time>2020-07-15T19:16:42 02:00</time>
      </trkpt>
      <trkpt lat="45.11982" lon="4.67326">
        <ele>759</ele>
        <time>2020-07-15T19:16:47 02:00</time>
      </trkpt>
      <trkpt lat="45.11984" lon="4.67323">
        <ele>758</ele>
        <time>2020-07-15T19:16:52 02:00</time>
      </trkpt>
      <trkpt lat="45.11983" lon="4.67313">
        <ele>758</ele>
        <time>2020-07-15T19:16:57 02:00</time>
      </trkpt>
      <trkpt lat="45.11985" lon="4.67307">
        <ele>758</ele>
        <time>2020-07-15T19:17:02 02:00</time>
      </trkpt>
      <trkpt lat="45.11984" lon="4.67298">
        <ele>757</ele>
        <time>2020-07-15T19:17:07 02:00</time>
      </trkpt>
      <trkpt lat="45.11985" lon="4.6729">
        <ele>757</ele>
        <time>2020-07-15T19:17:12 02:00</time>
      </trkpt>
      <trkpt lat="45.11979" lon="4.67281">
        <ele>757</ele>
        <time>2020-07-15T19:17:17 02:00</time>
      </trkpt>
      <trkpt lat="45.11981" lon="4.67274">
        <ele>756</ele>
        <time>2020-07-15T19:17:22 02:00</time>
      </trkpt>
      <trkpt lat="45.11979" lon="4.67267">
        <ele>756</ele>
        <time>2020-07-15T19:17:27 02:00</time>
      </trkpt>
      <trkpt lat="45.11978" lon="4.67256">
        <ele>756</ele>
        <time>2020-07-15T19:17:32 02:00</time>
      </trkpt>
      <trkpt lat="45.11979" lon="4.67248">
        <ele>755</ele>
        <time>2020-07-15T19:17:37 02:00</time>
      </trkpt>
      <trkpt lat="45.11976" lon="4.6724">
        <ele>755</ele>
        <time>2020-07-15T19:17:42 02:00</time>
      </trkpt>
      <trkpt lat="45.11974" lon="4.67236">
        <ele>755</ele>
        <time>2020-07-15T19:17:47 02:00</time>
      </trkpt>
      <trkpt lat="45.11977" lon="4.6723">
        <ele>755</ele>
        <time>2020-07-15T19:17:52 02:00</time>
      </trkpt>
      <trkpt lat="45.11976" lon="4.67232">
        <ele>755</ele>
        <time>2020-07-15T19:17:57 02:00</time>
      </trkpt>
      <trkpt lat="45.11971" lon="4.67221">
        <ele>755</ele>
        <time>2020-07-15T19:18:02 02:00</time>
      </trkpt>
      <trkpt lat="45.11974" lon="4.67223">
        <ele>755</ele>
        <time>2020-07-15T19:18:07 02:00</time>
      </trkpt>
      <trkpt lat="45.11973" lon="4.67219">
        <ele>755</ele>
        <time>2020-07-15T19:18:12 02:00</time>
      </trkpt>
      <trkpt lat="45.11969" lon="4.67221">
        <ele>755</ele>
        <time>2020-07-15T19:18:17 02:00</time>
      </trkpt>
      <trkpt lat="45.11976" lon="4.67221">
        <ele>755</ele>
        <time>2020-07-15T19:18:22 02:00</time>
      </trkpt>
      <trkpt lat="45.11969" lon="4.67215">
        <ele>755</ele>
        <time>2020-07-15T19:18:27 02:00</time>
      </trkpt>
      <trkpt lat="45.11971" lon="4.67206">
        <ele>754</ele>
        <time>2020-07-15T19:18:32 02:00</time>
      </trkpt>
      <trkpt lat="45.11968" lon="4.67193">
        <ele>754</ele>
        <time>2020-07-15T19:18:37 02:00</time>
      </trkpt>
      <trkpt lat="45.11968" lon="4.67182">
        <ele>754</ele>
        <time>2020-07-15T19:18:42 02:00</time>
      </trkpt>
      <trkpt lat="45.11966" lon="4.67178">
        <ele>754</ele>
        <time>2020-07-15T19:18:47 02:00</time>
      </trkpt>
      <trkpt lat="45.11966" lon="4.67182">
        <ele>754</ele>
        <time>2020-07-15T19:18:52 02:00</time>
      </trkpt>
      <trkpt lat="45.11965" lon="4.67187">
        <ele>754</ele>
        <time>2020-07-15T19:18:57 02:00</time>
      </trkpt>
      <trkpt lat="45.11966" lon="4.67176">
        <ele>754</ele>
        <time>2020-07-15T19:19:02 02:00</time>
      </trkpt>
      <trkpt lat="45.11965" lon="4.67187">
        <ele>754</ele>
        <time>2020-07-15T19:19:07 02:00</time>
      </trkpt>
      <trkpt lat="45.11965" lon="4.67185">
        <ele>754</ele>
        <time>2020-07-15T19:19:12 02:00</time>
      </trkpt>
      <trkpt lat="45.11963" lon="4.67178">
        <ele>754</ele>
        <time>2020-07-15T19:19:17 02:00</time>
      </trkpt>
      <trkpt lat="45.11968" lon="4.67176">
        <ele>754</ele>
        <time>2020-07-15T19:19:22 02:00</time>
      </trkpt>
      <trkpt lat="45.11965" lon="4.67176">
        <ele>754</ele>
        <time>2020-07-15T19:19:27 02:00</time>
      </trkpt>
      <trkpt lat="45.11966" lon="4.67165">
        <ele>753</ele>
        <time>2020-07-15T19:19:32 02:00</time>
      </trkpt>
      <trkpt lat="45.11962" lon="4.6717">
        <ele>754</ele>
        <time>2020-07-15T19:19:37 02:00</time>
      </trkpt>
      <trkpt lat="45.11962" lon="4.6717">
        <ele>754</ele>
        <time>2020-07-15T19:19:42 02:00</time>
      </trkpt>
      <trkpt lat="45.11963" lon="4.67167">
        <ele>754</ele>
        <time>2020-07-15T19:19:47 02:00</time>
      </trkpt>
      <trkpt lat="45.1196" lon="4.67165">
        <ele>754</ele>
        <time>2020-07-15T19:19:52 02:00</time>
      </trkpt>
      <trkpt lat="45.11962" lon="4.67174">
        <ele>754</ele>
        <time>2020-07-15T19:19:57 02:00</time>
      </trkpt>
      <trkpt lat="45.11963" lon="4.67172">
        <ele>754</ele>
        <time>2020-07-15T19:20:02 02:00</time>
      </trkpt>
      <trkpt lat="45.11963" lon="4.6717">
        <ele>754</ele>
        <time>2020-07-15T19:20:07 02:00</time>
      </trkpt>
      <trkpt lat="45.1196" lon="4.67165">
        <ele>754</ele>
        <time>2020-07-15T19:20:12 02:00</time>
      </trkpt>
      <trkpt lat="45.1196" lon="4.67163">
        <ele>754</ele>
        <time>2020-07-15T19:20:17 02:00</time>
      </trkpt>
      <trkpt lat="45.1196" lon="4.67139">
        <ele>752</ele>
        <time>2020-07-15T19:20:22 02:00</time>
      </trkpt>
      <trkpt lat="45.11948" lon="4.67116">
        <ele>751</ele>
        <time>2020-07-15T19:20:27 02:00</time>
      </trkpt>
      <trkpt lat="45.11944" lon="4.67086">
        <ele>749</ele>
        <time>2020-07-15T19:20:32 02:00</time>
      </trkpt>
      <trkpt lat="45.11936" lon="4.67067">
        <ele>749</ele>
        <time>2020-07-15T19:20:37 02:00</time>
      </trkpt>
      <trkpt lat="45.11929" lon="4.67054">
        <ele>750</ele>
        <time>2020-07-15T19:20:42 02:00</time>
      </trkpt>
      <trkpt lat="45.11932" lon="4.67049">
        <ele>749</ele>
        <time>2020-07-15T19:20:47 02:00</time>
      </trkpt>
      <trkpt lat="45.1193" lon="4.67049">
        <ele>750</ele>
        <time>2020-07-15T19:20:52 02:00</time>
      </trkpt>
      <trkpt lat="45.1192" lon="4.67013">
        <ele>751</ele>
        <time>2020-07-15T19:20:57 02:00</time>
      </trkpt>
      <trkpt lat="45.11901" lon="4.66985">
        <ele>750</ele>
        <time>2020-07-15T19:21:02 02:00</time>
      </trkpt>
      <trkpt lat="45.11895" lon="4.66944">
        <ele>754</ele>
        <time>2020-07-15T19:21:07 02:00</time>
      </trkpt>
      <trkpt lat="45.11904" lon="4.66892">
        <ele>757</ele>
        <time>2020-07-15T19:21:12 02:00</time>
      </trkpt>
      <trkpt lat="45.11892" lon="4.66898">
        <ele>757</ele>
        <time>2020-07-15T19:21:17 02:00</time>
      </trkpt>
      <trkpt lat="45.11872" lon="4.66862">
        <ele>760</ele>
        <time>2020-07-15T19:21:22 02:00</time>
      </trkpt>
      <trkpt lat="45.11833" lon="4.66802">
        <ele>767</ele>
        <time>2020-07-15T19:21:27 02:00</time>
      </trkpt>
      <trkpt lat="45.11799" lon="4.66726">
        <ele>766</ele>
        <time>2020-07-15T19:21:32 02:00</time>
      </trkpt>
      <trkpt lat="45.11768" lon="4.66681">
        <ele>771</ele>
        <time>2020-07-15T19:21:37 02:00</time>
      </trkpt>
      <trkpt lat="45.11749" lon="4.66621">
        <ele>773</ele>
        <time>2020-07-15T19:21:42 02:00</time>
      </trkpt>
      <trkpt lat="45.11742" lon="4.66561">
        <ele>769</ele>
        <time>2020-07-15T19:21:47 02:00</time>
      </trkpt>
      <trkpt lat="45.11718" lon="4.66518">
        <ele>766</ele>
        <time>2020-07-15T19:21:52 02:00</time>
      </trkpt>
      <trkpt lat="45.11696" lon="4.66493">
        <ele>766</ele>
        <time>2020-07-15T19:21:57 02:00</time>
      </trkpt>
      <trkpt lat="45.11678" lon="4.66486">
        <ele>768</ele>
        <time>2020-07-15T19:22:02 02:00</time>
      </trkpt>
      <trkpt lat="45.11659" lon="4.66407">
        <ele>765</ele>
        <time>2020-07-15T19:22:07 02:00</time>
      </trkpt>
      <trkpt lat="45.11628" lon="4.66304">
        <ele>766</ele>
        <time>2020-07-15T19:22:12 02:00</time>
      </trkpt>
      <trkpt lat="45.1161" lon="4.66244">
        <ele>773</ele>
        <time>2020-07-15T19:22:17 02:00</time>
      </trkpt>
      <trkpt lat="45.116" lon="4.66218">
        <ele>776</ele>
        <time>2020-07-15T19:22:22 02:00</time>
      </trkpt>
      <trkpt lat="45.11565" lon="4.66201">
        <ele>775</ele>
        <time>2020-07-15T19:22:27 02:00</time>
      </trkpt>
      <trkpt lat="45.11539" lon="4.66141">
        <ele>778</ele>
        <time>2020-07-15T19:22:32 02:00</time>
      </trkpt>
      <trkpt lat="45.11525" lon="4.66111">
        <ele>779</ele>
        <time>2020-07-15T19:22:37 02:00</time>
      </trkpt>
      <trkpt lat="45.115" lon="4.66067">
        <ele>783</ele>
        <time>2020-07-15T19:22:42 02:00</time>
      </trkpt>
      <trkpt lat="45.11491" lon="4.66019">
        <ele>786</ele>
        <time>2020-07-15T19:22:47 02:00</time>
      </trkpt>
      <trkpt lat="45.11487" lon="4.6597">
        <ele>792</ele>
        <time>2020-07-15T19:22:52 02:00</time>
      </trkpt>
      <trkpt lat="45.11507" lon="4.65957">
        <ele>793</ele>
        <time>2020-07-15T19:22:57 02:00</time>
      </trkpt>
      <trkpt lat="45.11513" lon="4.65916">
        <ele>796</ele>
        <time>2020-07-15T19:23:02 02:00</time>
      </trkpt>
      <trkpt lat="45.11503" lon="4.65908">
        <ele>798</ele>
        <time>2020-07-15T19:23:07 02:00</time>
      </trkpt>
      <trkpt lat="45.11465" lon="4.6591">
        <ele>802</ele>
        <time>2020-07-15T19:23:12 02:00</time>
      </trkpt>
      <trkpt lat="45.11398" lon="4.659">
        <ele>803</ele>
        <time>2020-07-15T19:23:17 02:00</time>
      </trkpt>
      <trkpt lat="45.11373" lon="4.65833">
        <ele>811</ele>
        <time>2020-07-15T19:23:22 02:00</time>
      </trkpt>
      <trkpt lat="45.1135" lon="4.65792">
        <ele>814</ele>
        <time>2020-07-15T19:23:27 02:00</time>
      </trkpt>
      <trkpt lat="45.11341" lon="4.65728">
        <ele>819</ele>
        <time>2020-07-15T19:23:32 02:00</time>
      </trkpt>
      <trkpt lat="45.11299" lon="4.65686">
        <ele>821</ele>
        <time>2020-07-15T19:23:37 02:00</time>
      </trkpt>
      <trkpt lat="45.11288" lon="4.6564">
        <ele>821</ele>
        <time>2020-07-15T19:23:42 02:00</time>
      </trkpt>
      <trkpt lat="45.11291" lon="4.65592">
        <ele>820</ele>
        <time>2020-07-15T19:23:47 02:00</time>
      </trkpt>
      <trkpt lat="45.11303" lon="4.65512">
        <ele>813</ele>
        <time>2020-07-15T19:23:52 02:00</time>
      </trkpt>
      <trkpt lat="45.113" lon="4.65467">
        <ele>806</ele>
        <time>2020-07-15T19:23:57 02:00</time>
      </trkpt>
      <trkpt lat="45.11292" lon="4.65396">
        <ele>795</ele>
        <time>2020-07-15T19:24:02 02:00</time>
      </trkpt>
      <trkpt lat="45.11292" lon="4.65355">
        <ele>790</ele>
        <time>2020-07-15T19:24:07 02:00</time>
      </trkpt>
      <trkpt lat="45.1128" lon="4.65318">
        <ele>786</ele>
        <time>2020-07-15T19:24:12 02:00</time>
      </trkpt>
      <trkpt lat="45.11274" lon="4.65302">
        <ele>786</ele>
        <time>2020-07-15T19:24:17 02:00</time>
      </trkpt>
      <trkpt lat="45.11254" lon="4.65278">
        <ele>786</ele>
        <time>2020-07-15T19:24:22 02:00</time>
      </trkpt>
      <trkpt lat="45.11295" lon="4.65248">
        <ele>783</ele>
        <time>2020-07-15T19:24:27 02:00</time>
      </trkpt>
      <trkpt lat="45.11324" lon="4.65209">
        <ele>784</ele>
        <time>2020-07-15T19:24:32 02:00</time>
      </trkpt>
      <trkpt lat="45.11342" lon="4.65156">
        <ele>786</ele>
        <time>2020-07-15T19:24:37 02:00</time>
      </trkpt>
      <trkpt lat="45.11372" lon="4.65083">
        <ele>787</ele>
        <time>2020-07-15T19:24:42 02:00</time>
      </trkpt>
      <trkpt lat="45.11385" lon="4.65048">
        <ele>787</ele>
        <time>2020-07-15T19:24:47 02:00</time>
      </trkpt>
      <trkpt lat="45.11392" lon="4.64999">
        <ele>787</ele>
        <time>2020-07-15T19:24:52 02:00</time>
      </trkpt>
      <trkpt lat="45.11403" lon="4.64935">
        <ele>783</ele>
        <time>2020-07-15T19:24:57 02:00</time>
      </trkpt>
      <trkpt lat="45.11401" lon="4.64872">
        <ele>781</ele>
        <time>2020-07-15T19:25:02 02:00</time>
      </trkpt>
      <trkpt lat="45.11378" lon="4.64812">
        <ele>783</ele>
        <time>2020-07-15T19:25:07 02:00</time>
      </trkpt>
      <trkpt lat="45.11357" lon="4.64765">
        <ele>785</ele>
        <time>2020-07-15T19:25:12 02:00</time>
      </trkpt>
      <trkpt lat="45.11341" lon="4.64714">
        <ele>788</ele>
        <time>2020-07-15T19:25:17 02:00</time>
      </trkpt>
      <trkpt lat="45.11325" lon="4.64684">
        <ele>789</ele>
        <time>2020-07-15T19:25:22 02:00</time>
      </trkpt>
      <trkpt lat="45.11359" lon="4.64559">
        <ele>787</ele>
        <time>2020-07-15T19:25:27 02:00</time>
      </trkpt>
      <trkpt lat="45.11259" lon="4.64591">
        <ele>798</ele>
        <time>2020-07-15T19:25:32 02:00</time>
      </trkpt>
      <trkpt lat="45.11191" lon="4.64632">
        <ele>806</ele>
        <time>2020-07-15T19:25:37 02:00</time>
      </trkpt>
      <trkpt lat="45.11124" lon="4.64677">
        <ele>812</ele>
        <time>2020-07-15T19:25:42 02:00</time>
      </trkpt>
      <trkpt lat="45.111" lon="4.64727">
        <ele>812</ele>
        <time>2020-07-15T19:25:47 02:00</time>
      </trkpt>
      <trkpt lat="45.11095" lon="4.64682">
        <ele>813</ele>
        <time>2020-07-15T19:25:52 02:00</time>
      </trkpt>
      <trkpt lat="45.11112" lon="4.64609">
        <ele>816</ele>
        <time>2020-07-15T19:25:57 02:00</time>
      </trkpt>
      <trkpt lat="45.11116" lon="4.6457">
        <ele>818</ele>
        <time>2020-07-15T19:26:02 02:00</time>
      </trkpt>
      <trkpt lat="45.11113" lon="4.64542">
        <ele>821</ele>
        <time>2020-07-15T19:26:07 02:00</time>
      </trkpt>
      <trkpt lat="45.11068" lon="4.64513">
        <ele>829</ele>
        <time>2020-07-15T19:26:12 02:00</time>
      </trkpt>
      <trkpt lat="45.10985" lon="4.64465">
        <ele>832</ele>
        <time>2020-07-15T19:26:17 02:00</time>
      </trkpt>
      <trkpt lat="45.10924" lon="4.64406">
        <ele>835</ele>
        <time>2020-07-15T19:26:22 02:00</time>
      </trkpt>
      <trkpt lat="45.10889" lon="4.64385">
        <ele>828</ele>
        <time>2020-07-15T19:26:27 02:00</time>
      </trkpt>
      <trkpt lat="45.10874" lon="4.64338">
        <ele>824</ele>
        <time>2020-07-15T19:26:32 02:00</time>
      </trkpt>
      <trkpt lat="45.1088" lon="4.6425">
        <ele>825</ele>
        <time>2020-07-15T19:26:37 02:00</time>
      </trkpt>
      <trkpt lat="45.1087" lon="4.64179">
        <ele>824</ele>
        <time>2020-07-15T19:26:42 02:00</time>
      </trkpt>
      <trkpt lat="45.10855" lon="4.64083">
        <ele>826</ele>
        <time>2020-07-15T19:26:47 02:00</time>
      </trkpt>
      <trkpt lat="45.10824" lon="4.63985">
        <ele>826</ele>
        <time>2020-07-15T19:26:52 02:00</time>
      </trkpt>
      <trkpt lat="45.10797" lon="4.63941">
        <ele>825</ele>
        <time>2020-07-15T19:26:57 02:00</time>
      </trkpt>
      <trkpt lat="45.10735" lon="4.63939">
        <ele>812</ele>
        <time>2020-07-15T19:27:02 02:00</time>
      </trkpt>
      <trkpt lat="45.10688" lon="4.63973">
        <ele>801</ele>
        <time>2020-07-15T19:27:07 02:00</time>
      </trkpt>
      <trkpt lat="45.10652" lon="4.6398">
        <ele>799</ele>
        <time>2020-07-15T19:27:12 02:00</time>
      </trkpt>
      <trkpt lat="45.10623" lon="4.63995">
        <ele>798</ele>
        <time>2020-07-15T19:27:17 02:00</time>
      </trkpt>
      <trkpt lat="45.10633" lon="4.64021">
        <ele>791</ele>
        <time>2020-07-15T19:27:22 02:00</time>
      </trkpt>
      <trkpt lat="45.10683" lon="4.64025">
        <ele>790</ele>
        <time>2020-07-15T19:27:27 02:00</time>
      </trkpt>
      <trkpt lat="45.10744" lon="4.64019">
        <ele>797</ele>
        <time>2020-07-15T19:27:32 02:00</time>
      </trkpt>
      <trkpt lat="45.1076" lon="4.64055">
        <ele>793</ele>
        <time>2020-07-15T19:27:37 02:00</time>
      </trkpt>
      <trkpt lat="45.10762" lon="4.64089">
        <ele>787</ele>
        <time>2020-07-15T19:27:42 02:00</time>
      </trkpt>
      <trkpt lat="45.10776" lon="4.64134">
        <ele>788</ele>
        <time>2020-07-15T19:27:47 02:00</time>
      </trkpt>
      <trkpt lat="45.1075" lon="4.64155">
        <ele>773</ele>
        <time>2020-07-15T19:27:52 02:00</time>
      </trkpt>
      <trkpt lat="45.10718" lon="4.64145">
        <ele>767</ele>
        <time>2020-07-15T19:27:57 02:00</time>
      </trkpt>
      <trkpt lat="45.1071" lon="4.64125">
        <ele>769</ele>
        <time>2020-07-15T19:28:02 02:00</time>
      </trkpt>
      <trkpt lat="45.10692" lon="4.64126">
        <ele>765</ele>
        <time>2020-07-15T19:28:07 02:00</time>
      </trkpt>
      <trkpt lat="45.10664" lon="4.64124">
        <ele>760</ele>
        <time>2020-07-15T19:28:12 02:00</time>
      </trkpt>
      <trkpt lat="45.10611" lon="4.64171">
        <ele>748</ele>
        <time>2020-07-15T19:28:17 02:00</time>
      </trkpt>
      <trkpt lat="45.10579" lon="4.64207">
        <ele>737</ele>
        <time>2020-07-15T19:28:22 02:00</time>
      </trkpt>
      <trkpt lat="45.10539" lon="4.64222">
        <ele>732</ele>
        <time>2020-07-15T19:28:27 02:00</time>
      </trkpt>
      <trkpt lat="45.10506" lon="4.64231">
        <ele>728</ele>
        <time>2020-07-15T19:28:32 02:00</time>
      </trkpt>
      <trkpt lat="45.10462" lon="4.64227">
        <ele>731</ele>
        <time>2020-07-15T19:28:37 02:00</time>
      </trkpt>
      <trkpt lat="45.10427" lon="4.64231">
        <ele>731</ele>
        <time>2020-07-15T19:28:42 02:00</time>
      </trkpt>
      <trkpt lat="45.10387" lon="4.64257">
        <ele>731</ele>
        <time>2020-07-15T19:28:47 02:00</time>
      </trkpt>
      <trkpt lat="45.10352" lon="4.64323">
        <ele>725</ele>
        <time>2020-07-15T19:28:52 02:00</time>
      </trkpt>
      <trkpt lat="45.10346" lon="4.64381">
        <ele>718</ele>
        <time>2020-07-15T19:28:57 02:00</time>
      </trkpt>
      <trkpt lat="45.10346" lon="4.64403">
        <ele>715</ele>
        <time>2020-07-15T19:29:02 02:00</time>
      </trkpt>
      <trkpt lat="45.10347" lon="4.64411">
        <ele>713</ele>
        <time>2020-07-15T19:29:07 02:00</time>
      </trkpt>
      <trkpt lat="45.10314" lon="4.64465">
        <ele>712</ele>
        <time>2020-07-15T19:29:12 02:00</time>
      </trkpt>
      <trkpt lat="45.10265" lon="4.64523">
        <ele>716</ele>
        <time>2020-07-15T19:29:17 02:00</time>
      </trkpt>
      <trkpt lat="45.10233" lon="4.64591">
        <ele>711</ele>
        <time>2020-07-15T19:29:22 02:00</time>
      </trkpt>
      <trkpt lat="45.10226" lon="4.64667">
        <ele>694</ele>
        <time>2020-07-15T19:29:27 02:00</time>
      </trkpt>
      <trkpt lat="45.10257" lon="4.64651">
        <ele>689</ele>
        <time>2020-07-15T19:29:32 02:00</time>
      </trkpt>
      <trkpt lat="45.10282" lon="4.64641">
        <ele>683</ele>
        <time>2020-07-15T19:29:37 02:00</time>
      </trkpt>
      <trkpt lat="45.10307" lon="4.64619">
        <ele>680</ele>
        <time>2020-07-15T19:29:42 02:00</time>
      </trkpt>
      <trkpt lat="45.1034" lon="4.64595">
        <ele>675</ele>
        <time>2020-07-15T19:29:47 02:00</time>
      </trkpt>
      <trkpt lat="45.10361" lon="4.64584">
        <ele>674</ele>
        <time>2020-07-15T19:29:52 02:00</time>
      </trkpt>
      <trkpt lat="45.10346" lon="4.64615">
        <ele>670</ele>
        <time>2020-07-15T19:29:57 02:00</time>
      </trkpt>
      <trkpt lat="45.10302" lon="4.64679">
        <ele>667</ele>
        <time>2020-07-15T19:30:02 02:00</time>
      </trkpt>
      <trkpt lat="45.1024" lon="4.64735">
        <ele>672</ele>
        <time>2020-07-15T19:30:07 02:00</time>
      </trkpt>
      <trkpt lat="45.10211" lon="4.64769">
        <ele>674</ele>
        <time>2020-07-15T19:30:12 02:00</time>
      </trkpt>
      <trkpt lat="45.10176" lon="4.64817">
        <ele>675</ele>
        <time>2020-07-15T19:30:17 02:00</time>
      </trkpt>
      <trkpt lat="45.1015" lon="4.64855">
        <ele>672</ele>
        <time>2020-07-15T19:30:22 02:00</time>
      </trkpt>
      <trkpt lat="45.10128" lon="4.64894">
        <ele>667</ele>
        <time>2020-07-15T19:30:27 02:00</time>
      </trkpt>
      <trkpt lat="45.10097" lon="4.64915">
        <ele>663</ele>
        <time>2020-07-15T19:30:32 02:00</time>
      </trkpt>
      <trkpt lat="45.10043" lon="4.64935">
        <ele>658</ele>
        <time>2020-07-15T19:30:37 02:00</time>
      </trkpt>
      <trkpt lat="45.10006" lon="4.64936">
        <ele>655</ele>
        <time>2020-07-15T19:30:42 02:00</time>
      </trkpt>
      <trkpt lat="45.09967" lon="4.64922">
        <ele>652</ele>
        <time>2020-07-15T19:30:47 02:00</time>
      </trkpt>
      <trkpt lat="45.09944" lon="4.64911">
        <ele>650</ele>
        <time>2020-07-15T19:30:52 02:00</time>
      </trkpt>
      <trkpt lat="45.09922" lon="4.64898">
        <ele>647</ele>
        <time>2020-07-15T19:30:57 02:00</time>
      </trkpt>
      <trkpt lat="45.09894" lon="4.64928">
        <ele>642</ele>
        <time>2020-07-15T19:31:02 02:00</time>
      </trkpt>
      <trkpt lat="45.09888" lon="4.64913">
        <ele>640</ele>
        <time>2020-07-15T19:31:07 02:00</time>
      </trkpt>
      <trkpt lat="45.09881" lon="4.64904">
        <ele>639</ele>
        <time>2020-07-15T19:31:12 02:00</time>
      </trkpt>
      <trkpt lat="45.09873" lon="4.64922">
        <ele>638</ele>
        <time>2020-07-15T19:31:17 02:00</time>
      </trkpt>
      <trkpt lat="45.09867" lon="4.64857">
        <ele>636</ele>
        <time>2020-07-15T19:31:22 02:00</time>
      </trkpt>
      <trkpt lat="45.09822" lon="4.64808">
        <ele>628</ele>
        <time>2020-07-15T19:31:27 02:00</time>
      </trkpt>
      <trkpt lat="45.09764" lon="4.64755">
        <ele>623</ele>
        <time>2020-07-15T19:31:32 02:00</time>
      </trkpt>
      <trkpt lat="45.09732" lon="4.64692">
        <ele>623</ele>
        <time>2020-07-15T19:31:37 02:00</time>
      </trkpt>
      <trkpt lat="45.09699" lon="4.64619">
        <ele>621</ele>
        <time>2020-07-15T19:31:42 02:00</time>
      </trkpt>
      <trkpt lat="45.0966" lon="4.64615">
        <ele>616</ele>
        <time>2020-07-15T19:31:47 02:00</time>
      </trkpt>
      <trkpt lat="45.096" lon="4.64598">
        <ele>615</ele>
        <time>2020-07-15T19:31:52 02:00</time>
      </trkpt>
      <trkpt lat="45.09549" lon="4.646">
        <ele>619</ele>
        <time>2020-07-15T19:31:57 02:00</time>
      </trkpt>
      <trkpt lat="45.09476" lon="4.64551">
        <ele>622</ele>
        <time>2020-07-15T19:32:02 02:00</time>
      </trkpt>
      <trkpt lat="45.09411" lon="4.64548">
        <ele>628</ele>
        <time>2020-07-15T19:32:07 02:00</time>
      </trkpt>
      <trkpt lat="45.09342" lon="4.64537">
        <ele>630</ele>
        <time>2020-07-15T19:32:12 02:00</time>
      </trkpt>
      <trkpt lat="45.09353" lon="4.64605">
        <ele>638</ele>
        <time>2020-07-15T19:32:17 02:00</time>
      </trkpt>
      <trkpt lat="45.09366" lon="4.6466">
        <ele>641</ele>
        <time>2020-07-15T19:32:22 02:00</time>
      </trkpt>
      <trkpt lat="45.09377" lon="4.64785">
        <ele>644</ele>
        <time>2020-07-15T19:32:27 02:00</time>
      </trkpt>
      <trkpt lat="45.09376" lon="4.64956">
        <ele>638</ele>
        <time>2020-07-15T19:32:32 02:00</time>
      </trkpt>
      <trkpt lat="45.09402" lon="4.64967">
        <ele>635</ele>
        <time>2020-07-15T19:32:37 02:00</time>
      </trkpt>
      <trkpt lat="45.09419" lon="4.64967">
        <ele>634</ele>
        <time>2020-07-15T19:32:42 02:00</time>
      </trkpt>
      <trkpt lat="45.09431" lon="4.64993">
        <ele>631</ele>
        <time>2020-07-15T19:32:47 02:00</time>
      </trkpt>
      <trkpt lat="45.09431" lon="4.65029">
        <ele>628</ele>
        <time>2020-07-15T19:32:52 02:00</time>
      </trkpt>
      <trkpt lat="45.09414" lon="4.65055">
        <ele>628</ele>
        <time>2020-07-15T19:32:57 02:00</time>
      </trkpt>
      <trkpt lat="45.09396" lon="4.65061">
        <ele>628</ele>
        <time>2020-07-15T19:33:02 02:00</time>
      </trkpt>
      <trkpt lat="45.09402" lon="4.65196">
        <ele>619</ele>
        <time>2020-07-15T19:33:07 02:00</time>
      </trkpt>
    </trkseg>
  </trk>
</gpx>